createdAt,value
2018-09-08T00:00:36.286Z,73.90
2018-09-08T00:03:04.481Z,74.20
2018-09-08T00:05:32.792Z,74.80
2018-09-08T00:08:03.862Z,74.40
2018-09-08T00:10:32.095Z,74.10
2018-09-08T00:13:00.314Z,73.30
2018-09-08T00:15:34.224Z,73.80
2018-09-08T00:18:08.068Z,73.20
2018-09-08T00:20:41.901Z,74.40
2018-09-08T00:23:15.786Z,73.90
2018-09-08T00:25:49.608Z,74.70
2018-09-08T00:28:37.016Z,74.60
2018-09-08T00:31:05.750Z,74.00
2018-09-08T00:33:33.872Z,74.30
2018-09-08T00:36:01.984Z,73.80
2018-09-08T00:38:30.189Z,74.20
2018-09-08T00:40:58.326Z,73.60
2018-09-08T00:43:26.484Z,74.70
2018-09-08T00:45:54.774Z,76.10
2018-09-08T00:48:22.900Z,76.00
2018-09-08T00:50:51.038Z,77.30
2018-09-08T00:53:19.154Z,77.20
2018-09-08T00:55:47.274Z,77.20
2018-09-08T00:58:15.572Z,77.20
2018-09-08T01:00:43.700Z,76.90
2018-09-08T01:03:11.935Z,76.30
2018-09-08T01:05:40.060Z,76.50
2018-09-08T01:08:08.259Z,76.80
2018-09-08T01:10:36.440Z,77.30
2018-09-08T01:13:04.664Z,77.30
2018-09-08T01:15:32.812Z,76.80
2018-09-08T01:18:00.946Z,77.10
2018-09-08T01:20:29.089Z,77.00
2018-09-08T01:22:57.259Z,77.10
2018-09-08T01:25:25.423Z,77.20
2018-09-08T01:27:53.563Z,77.10
2018-09-08T01:30:21.714Z,77.20
2018-09-08T01:32:49.847Z,76.90
2018-09-08T01:35:18.108Z,77.10
2018-09-08T01:37:46.281Z,77.10
2018-09-08T01:40:14.446Z,77.20
2018-09-08T01:42:42.568Z,77.20
2018-09-08T01:45:10.841Z,76.50
2018-09-08T01:47:39.775Z,76.90
2018-09-08T01:50:07.998Z,77.10
2018-09-08T01:52:36.153Z,77.10
2018-09-08T01:55:04.355Z,77.70
2018-09-08T01:57:32.491Z,78.30
2018-09-08T02:00:00.670Z,78.10
2018-09-08T02:02:29.415Z,77.60
2018-09-08T02:04:57.603Z,78.40
2018-09-08T02:07:25.775Z,79.10
2018-09-08T02:09:53.914Z,79.70
2018-09-08T02:12:22.074Z,80.20
2018-09-08T02:14:50.264Z,80.40
2018-09-08T02:17:18.523Z,80.50
2018-09-08T02:19:46.640Z,79.60
2018-09-08T02:22:14.856Z,78.90
2018-09-08T02:24:42.967Z,77.90
2018-09-08T02:27:11.131Z,77.20
2018-09-08T02:29:39.271Z,77.70
2018-09-08T02:32:07.491Z,78.40
2018-09-08T02:34:35.644Z,78.10
2018-09-08T02:37:03.991Z,78.70
2018-09-08T02:39:32.126Z,78.80
2018-09-08T02:42:00.304Z,79.10
2018-09-08T02:44:28.465Z,78.50
2018-09-08T02:46:56.641Z,79.40
2018-09-08T02:50:35.220Z,80.20
2018-09-08T02:53:02.215Z,80.20
2018-09-08T02:55:29.122Z,79.10
2018-09-08T02:57:56.104Z,78.40
2018-09-08T03:00:22.602Z,78.30
2018-09-08T03:02:49.259Z,77.60
2018-09-08T03:05:15.793Z,77.00
2018-09-08T03:07:42.299Z,77.00
2018-09-08T03:10:08.831Z,77.00
2018-09-08T03:12:35.326Z,77.70
2018-09-08T03:15:01.828Z,76.90
2018-09-08T03:17:28.311Z,76.90
2018-09-08T03:19:54.926Z,76.80
2018-09-08T03:22:21.586Z,76.80
2018-09-08T03:24:48.284Z,76.80
2018-09-08T03:27:14.949Z,76.90
2018-09-08T03:29:41.447Z,76.70
2018-09-08T03:32:07.943Z,75.40
2018-09-08T03:34:34.435Z,75.00
2018-09-08T03:37:00.920Z,75.40
2018-09-08T03:39:27.421Z,75.30
2018-09-08T03:41:53.979Z,75.70
2018-09-08T03:44:20.482Z,76.80
2018-09-08T03:46:47.019Z,76.10
2018-09-08T03:49:13.630Z,75.80
2018-09-08T03:51:40.123Z,76.10
2018-09-08T03:54:06.627Z,76.30
2018-09-08T03:56:33.149Z,76.60
2018-09-08T03:58:59.822Z,76.90
2018-09-08T04:01:26.423Z,77.40
2018-09-08T04:03:54.808Z,77.80
2018-09-08T04:06:23.110Z,77.70
2018-09-08T04:08:51.391Z,77.50
2018-09-08T04:11:20.125Z,78.30
2018-09-08T04:13:48.174Z,77.00
2018-09-08T04:16:16.326Z,77.10
2018-09-08T04:18:44.496Z,77.20
2018-09-08T04:21:12.673Z,76.70
2018-09-08T04:23:40.879Z,76.80
2018-09-08T04:26:09.063Z,76.80
2018-09-08T04:28:37.203Z,77.10
2018-09-08T04:31:05.807Z,77.70
2018-09-08T04:33:34.111Z,77.80
2018-09-08T04:36:03.091Z,77.90
2018-09-08T04:38:31.387Z,77.70
2018-09-08T04:40:59.772Z,77.20
2018-09-08T04:43:27.821Z,77.70
2018-09-08T04:45:56.058Z,76.30
2018-09-08T04:48:24.265Z,76.80
2018-09-08T04:50:52.444Z,76.60
2018-09-08T04:53:20.632Z,77.40
2018-09-08T04:55:48.828Z,77.90
2018-09-08T04:58:16.993Z,77.30
2018-09-08T05:00:45.235Z,75.90
2018-09-08T05:03:13.423Z,76.60
2018-09-08T05:05:41.599Z,76.50
2018-09-08T05:08:09.767Z,77.00
2018-09-08T05:10:37.927Z,76.40
2018-09-08T05:13:06.399Z,76.40
2018-09-08T05:15:34.532Z,76.10
2018-09-08T05:18:02.812Z,76.70
2018-09-08T05:20:30.955Z,76.40
2018-09-08T05:22:59.092Z,76.00
2018-09-08T05:25:27.245Z,75.70
2018-09-08T05:27:55.396Z,75.30
2018-09-08T05:30:23.534Z,75.40
2018-09-08T05:32:51.773Z,75.10
2018-09-08T05:35:19.949Z,75.10
2018-09-08T05:37:48.128Z,74.80
2018-09-08T05:40:16.302Z,74.90
2018-09-08T05:42:44.495Z,74.60
2018-09-08T05:45:12.841Z,74.90
2018-09-08T05:47:40.955Z,74.60
2018-09-08T05:50:09.119Z,75.40
2018-09-08T05:52:37.219Z,76.10
2018-09-08T05:55:05.407Z,76.10
2018-09-08T05:57:33.578Z,76.10
2018-09-08T06:00:01.790Z,76.70
2018-09-08T06:02:29.925Z,77.10
2018-09-08T06:04:58.125Z,76.20
2018-09-08T06:07:26.259Z,77.10
2018-09-08T06:09:54.458Z,76.20
2018-09-08T06:12:22.615Z,76.30
2018-09-08T06:14:50.706Z,76.30
2018-09-08T06:17:18.860Z,76.30
2018-09-08T06:19:47.094Z,75.80
2018-09-08T06:22:15.196Z,75.70
2018-09-08T06:24:43.522Z,75.30
2018-09-08T06:27:11.651Z,75.30
2018-09-08T06:29:39.843Z,74.60
2018-09-08T06:32:08.003Z,74.10
2018-09-08T06:34:36.262Z,74.40
2018-09-08T06:37:04.406Z,73.00
2018-09-08T06:39:32.562Z,72.20
2018-09-08T06:42:00.736Z,71.00
2018-09-08T06:44:28.883Z,70.90
2018-09-08T06:46:56.995Z,70.30
2018-09-08T06:49:25.232Z,69.10
2018-09-08T06:51:53.444Z,68.90
2018-09-08T06:54:21.597Z,67.80
2018-09-08T06:56:49.770Z,67.90
2018-09-08T06:59:18.006Z,66.20
2018-09-08T07:01:46.203Z,66.30
2018-09-08T07:04:14.453Z,65.90
2018-09-08T07:06:42.634Z,65.30
2018-09-08T07:09:11.042Z,64.00
2018-09-08T07:11:39.203Z,63.60
2018-09-08T07:14:07.378Z,62.50
2018-09-08T07:16:35.547Z,53.20
2018-09-08T07:19:03.766Z,55.40
2018-09-08T07:21:32.008Z,55.20
2018-09-08T07:24:00.269Z,56.80
2018-09-08T07:26:28.528Z,56.70
2018-09-08T07:28:56.877Z,55.70
2018-09-08T07:31:25.060Z,55.20
2018-09-08T07:33:53.235Z,55.70
2018-09-08T07:36:21.496Z,58.10
2018-09-08T07:38:49.728Z,55.80
2018-09-08T07:41:17.900Z,55.10
2018-09-08T07:43:46.069Z,55.00
2018-09-08T07:46:14.200Z,55.10
2018-09-08T07:48:42.367Z,56.80
2018-09-08T07:51:10.623Z,57.70
2018-09-08T07:53:38.887Z,56.60
2018-09-08T07:56:07.042Z,58.90
2018-09-08T07:58:35.480Z,57.50
2018-09-08T08:01:03.651Z,55.20
2018-09-08T08:03:31.832Z,51.90
2018-09-08T08:06:00.062Z,51.70
2018-09-08T08:08:28.280Z,50.90
2018-09-08T08:10:56.429Z,50.10
2018-09-08T08:13:24.676Z,50.50
2018-09-08T08:15:52.882Z,49.30
2018-09-08T08:18:21.076Z,49.00
2018-09-08T08:20:49.249Z,47.90
2018-09-08T08:23:17.530Z,48.60
2018-09-08T08:25:46.331Z,47.30
2018-09-08T08:28:14.556Z,47.40
2018-09-08T08:30:42.671Z,46.50
2018-09-08T08:33:10.817Z,46.80
2018-09-08T08:35:39.649Z,46.40
2018-09-08T08:38:08.462Z,46.70
2018-09-08T08:40:36.616Z,45.60
2018-09-08T08:43:04.889Z,47.10
2018-09-08T08:45:33.025Z,47.40
2018-09-08T08:48:01.176Z,46.80
2018-09-08T08:50:46.335Z,46.50
2018-09-08T08:54:28.473Z,44.30
2018-09-08T08:56:56.673Z,45.60
2018-09-08T08:59:24.883Z,46.90
2018-09-08T09:01:53.229Z,47.40
2018-09-08T09:04:21.456Z,47.00
2018-09-08T09:06:49.644Z,46.30
2018-09-08T09:09:17.781Z,45.60
2018-09-08T09:11:46.384Z,45.70
2018-09-08T09:14:14.266Z,46.00
2018-09-08T09:16:42.549Z,46.50
2018-09-08T09:19:39.503Z,46.40
2018-09-08T09:22:26.173Z,44.10
2018-09-08T09:25:00.725Z,44.90
2018-09-08T09:27:29.865Z,45.60
2018-09-08T09:29:58.399Z,46.90
2018-09-08T09:32:33.580Z,45.20
2018-09-08T09:35:01.743Z,44.80
2018-09-08T09:37:29.974Z,44.00
2018-09-08T09:39:58.921Z,43.10
2018-09-08T09:42:27.146Z,44.00
2018-09-08T09:44:55.426Z,44.20
2018-09-08T09:47:23.672Z,44.30
2018-09-08T09:49:51.849Z,44.50
2018-09-08T09:52:20.049Z,44.30
2018-09-08T09:54:48.219Z,43.10
2018-09-08T09:57:16.545Z,43.80
2018-09-08T09:59:44.731Z,43.50
2018-09-08T10:02:44.639Z,43.30
2018-09-08T10:05:16.009Z,43.30
2018-09-08T10:07:44.223Z,43.20
2018-09-08T10:10:13.863Z,43.50
2018-09-08T10:12:42.107Z,43.10
2018-09-08T10:15:10.463Z,44.10
2018-09-08T10:17:39.598Z,44.40
2018-09-08T10:20:10.234Z,43.20
2018-09-08T10:22:38.519Z,43.30
2018-09-08T10:25:08.967Z,43.40
2018-09-08T10:27:37.287Z,43.40
2018-09-08T10:30:06.486Z,42.00
2018-09-08T10:32:34.707Z,42.70
2018-09-08T10:35:02.935Z,43.00
2018-09-08T10:37:31.116Z,42.70
2018-09-08T10:39:59.447Z,42.20
2018-09-08T10:42:27.755Z,42.70
2018-09-08T10:44:56.230Z,42.80
2018-09-08T10:47:24.533Z,42.90
2018-09-08T10:49:52.894Z,42.90
2018-09-08T10:52:31.768Z,43.80
2018-09-08T10:54:59.994Z,42.40
2018-09-08T10:57:28.156Z,42.70
2018-09-08T10:59:56.504Z,42.50
2018-09-08T11:02:24.918Z,42.30
2018-09-08T11:04:53.006Z,41.60
2018-09-08T11:07:21.306Z,42.10
2018-09-08T11:09:49.500Z,41.90
2018-09-08T11:12:17.726Z,42.20
2018-09-08T11:14:45.913Z,42.10
2018-09-08T11:17:14.126Z,42.50
2018-09-08T11:19:42.312Z,43.00
2018-09-08T11:22:10.471Z,41.90
2018-09-08T11:24:38.678Z,41.80
2018-09-08T11:27:06.870Z,42.00
2018-09-08T11:29:35.105Z,40.90
2018-09-08T11:32:03.221Z,40.90
2018-09-08T11:34:31.519Z,41.40
2018-09-08T11:37:00.411Z,41.00
2018-09-08T11:39:28.709Z,41.00
2018-09-08T11:41:56.946Z,41.30
2018-09-08T11:44:25.173Z,41.00
2018-09-08T11:46:53.335Z,40.50
2018-09-08T11:49:21.611Z,40.80
2018-09-08T11:51:49.784Z,41.40
2018-09-08T11:54:17.944Z,41.00
2018-09-08T11:56:46.163Z,41.60
2018-09-08T11:59:14.331Z,40.50
2018-09-08T12:01:42.633Z,40.80
2018-09-08T12:04:10.948Z,40.30
2018-09-08T12:06:39.100Z,40.40
2018-09-08T12:09:09.281Z,40.00
2018-09-08T12:11:37.624Z,39.70
2018-09-08T12:14:06.145Z,40.90
2018-09-08T12:16:34.311Z,41.50
2018-09-08T12:19:03.457Z,41.30
2018-09-08T12:21:31.725Z,41.50
2018-09-08T12:23:59.968Z,41.10
2018-09-08T12:26:28.191Z,41.40
2018-09-08T12:28:56.473Z,40.60
2018-09-08T12:31:24.786Z,41.20
2018-09-08T12:33:53.040Z,42.00
2018-09-08T12:36:21.492Z,41.60
2018-09-08T12:38:49.826Z,40.40
2018-09-08T12:41:18.017Z,40.30
2018-09-08T12:43:46.215Z,39.80
2018-09-08T12:46:14.573Z,40.10
2018-09-08T12:48:42.825Z,40.20
2018-09-08T12:51:10.995Z,40.00
2018-09-08T12:53:39.191Z,40.20
2018-09-08T12:56:07.413Z,40.70
2018-09-08T12:58:35.829Z,40.50
2018-09-08T13:01:04.067Z,39.60
2018-09-08T13:03:32.329Z,39.50
2018-09-08T13:06:00.672Z,40.40
2018-09-08T13:08:28.932Z,40.40
2018-09-08T13:10:57.179Z,40.60
2018-09-08T13:13:25.389Z,40.00
2018-09-08T13:15:53.769Z,40.50
2018-09-08T13:18:22.907Z,40.60
2018-09-08T13:20:51.056Z,41.00
2018-09-08T13:23:19.295Z,40.90
2018-09-08T13:25:47.497Z,41.10
2018-09-08T13:28:15.660Z,40.00
2018-09-08T13:30:43.828Z,38.40
2018-09-08T13:33:12.052Z,37.90
2018-09-08T13:35:40.215Z,38.60
2018-09-08T13:38:08.522Z,37.50
2018-09-08T13:40:36.683Z,38.40
2018-09-08T13:43:04.913Z,38.10
2018-09-08T13:45:33.497Z,39.10
2018-09-08T13:48:01.667Z,39.00
2018-09-08T13:50:29.899Z,36.90
2018-09-08T13:52:58.094Z,36.60
2018-09-08T13:55:26.450Z,37.70
2018-09-08T13:57:54.618Z,38.00
2018-09-08T14:00:22.872Z,38.10
2018-09-08T14:02:51.038Z,36.80
2018-09-08T14:05:19.254Z,36.90
2018-09-08T14:07:50.196Z,37.00
2018-09-08T14:10:18.373Z,36.90
2018-09-08T14:12:46.499Z,36.80
2018-09-08T14:15:14.729Z,36.80
2018-09-08T14:17:42.894Z,36.90
2018-09-08T14:20:12.034Z,36.80
2018-09-08T14:22:40.641Z,36.10
2018-09-08T14:25:09.323Z,36.80
2018-09-08T14:27:37.490Z,35.60
2018-09-08T14:30:05.911Z,35.80
2018-09-08T14:32:40.080Z,36.50
2018-09-08T14:35:08.268Z,35.70
2018-09-08T14:37:36.416Z,36.90
2018-09-08T14:40:04.747Z,37.30
2018-09-08T14:42:32.882Z,36.10
2018-09-08T14:45:01.039Z,36.20
2018-09-08T14:47:29.273Z,35.80
2018-09-08T14:49:57.457Z,35.90
2018-09-08T14:52:25.592Z,34.40
2018-09-08T14:54:53.743Z,33.30
2018-09-08T14:57:22.040Z,33.90
2018-09-08T14:59:51.032Z,33.60
2018-09-08T15:02:19.289Z,34.40
2018-09-08T15:04:48.259Z,34.70
2018-09-08T15:07:16.354Z,34.70
2018-09-08T15:09:44.510Z,34.20
2018-09-08T15:12:12.760Z,33.20
2018-09-08T15:14:41.546Z,31.40
2018-09-08T15:17:09.747Z,30.40
2018-09-08T15:19:37.967Z,30.60
2018-09-08T15:22:06.380Z,30.10
2018-09-08T15:24:34.672Z,31.00
2018-09-08T15:27:02.867Z,31.70
2018-09-08T15:29:31.115Z,32.60
2018-09-08T15:31:59.301Z,34.10
2018-09-08T15:34:27.487Z,32.90
2018-09-08T15:36:55.680Z,32.40
2018-09-08T15:39:23.927Z,32.70
2018-09-08T15:41:52.293Z,32.70
2018-09-08T15:44:20.511Z,32.20
2018-09-08T15:46:48.743Z,31.90
2018-09-08T15:49:16.880Z,33.10
2018-09-08T15:51:45.104Z,33.00
2018-09-08T15:54:13.489Z,33.40
2018-09-08T15:56:41.684Z,34.00
2018-09-08T15:59:12.924Z,35.00
2018-09-08T16:01:41.112Z,34.50
2018-09-08T16:04:09.387Z,33.70
2018-09-08T16:06:37.578Z,34.20
2018-09-08T16:09:06.744Z,35.00
2018-09-08T16:11:34.904Z,35.20
2018-09-08T16:14:03.142Z,35.40
2018-09-08T16:16:31.315Z,35.20
2018-09-08T16:18:59.626Z,35.40
2018-09-08T16:21:27.824Z,34.90
2018-09-08T16:23:56.070Z,35.00
2018-09-08T16:26:24.462Z,34.50
2018-09-08T16:28:52.778Z,34.70
2018-09-08T16:31:20.925Z,34.70
2018-09-08T16:33:49.811Z,35.20
2018-09-08T16:36:17.997Z,34.50
2018-09-08T16:38:46.240Z,35.40
2018-09-08T16:41:14.401Z,34.90
2018-09-08T16:43:42.629Z,34.80
2018-09-08T16:46:11.749Z,35.30
2018-09-08T16:48:40.012Z,35.80
2018-09-08T16:51:08.309Z,35.10
2018-09-08T16:53:36.493Z,35.50
2018-09-08T16:56:04.776Z,35.60
2018-09-08T16:58:32.987Z,35.80
2018-09-08T17:01:01.183Z,36.00
2018-09-08T17:03:29.401Z,36.10
2018-09-08T17:05:57.657Z,36.00
2018-09-08T17:08:25.830Z,36.30
2018-09-08T17:10:54.115Z,36.00
2018-09-08T17:13:22.325Z,36.30
2018-09-08T17:15:50.519Z,36.60
2018-09-08T17:18:18.750Z,36.00
2018-09-08T17:20:46.925Z,36.60
2018-09-08T17:23:16.549Z,36.50
2018-09-08T17:25:44.735Z,36.60
2018-09-08T17:28:13.008Z,36.50
2018-09-08T17:30:41.300Z,36.50
2018-09-08T17:33:09.466Z,36.50
2018-09-08T17:35:37.667Z,36.50
2018-09-08T17:38:05.949Z,36.50
2018-09-08T17:40:34.175Z,36.50
2018-09-08T17:43:02.339Z,36.50
2018-09-08T17:45:30.538Z,36.50
2018-09-08T17:47:58.784Z,36.40
2018-09-08T17:50:27.133Z,36.30
2018-09-08T17:52:55.295Z,37.80
2018-09-08T17:55:23.478Z,36.50
2018-09-08T17:57:51.755Z,36.70
2018-09-08T18:00:19.891Z,37.10
2018-09-08T18:02:48.048Z,37.10
2018-09-08T18:05:16.312Z,37.40
2018-09-08T18:07:44.537Z,37.20
2018-09-08T18:10:12.671Z,37.70
2018-09-08T18:12:41.651Z,37.70
2018-09-08T18:15:10.365Z,37.70
2018-09-08T18:17:39.881Z,38.00
2018-09-08T18:20:08.144Z,39.10
2018-09-08T18:22:36.841Z,39.80
2018-09-08T18:25:05.239Z,40.20
2018-09-08T18:27:33.481Z,40.20
2018-09-08T18:30:01.738Z,40.40
2018-09-08T18:32:29.945Z,40.70
2018-09-08T18:34:58.194Z,41.00
2018-09-08T18:37:26.489Z,41.10
2018-09-08T18:39:54.691Z,41.10
2018-09-08T18:42:22.846Z,42.20
2018-09-08T18:44:51.015Z,42.00
2018-09-08T18:47:19.248Z,44.20
2018-09-08T18:49:47.471Z,44.60
2018-09-08T18:52:15.693Z,44.60
2018-09-08T18:54:44.011Z,45.10
2018-09-08T18:57:12.252Z,45.40
2018-09-08T18:59:40.450Z,45.90
2018-09-08T19:02:08.650Z,46.90
2018-09-08T19:04:36.908Z,47.70
2018-09-08T19:07:05.076Z,48.70
2018-09-08T19:09:33.369Z,48.70
2018-09-08T19:12:01.664Z,49.80
2018-09-08T19:14:35.657Z,49.90
2018-09-08T19:17:03.982Z,50.20
2018-09-08T19:19:32.323Z,50.20
2018-09-08T19:22:00.582Z,50.40
2018-09-08T19:24:34.381Z,51.00
2018-09-08T19:27:02.630Z,50.90
2018-09-08T19:29:36.571Z,51.40
2018-09-08T19:32:04.871Z,51.90
2018-09-08T19:34:33.080Z,52.40
2018-09-08T19:37:01.300Z,52.30
2018-09-08T19:39:29.703Z,53.10
2018-09-08T19:41:57.962Z,53.30
2018-09-08T19:44:26.202Z,53.70
2018-09-08T19:47:00.071Z,53.60
2018-09-08T19:49:28.334Z,53.50
2018-09-08T19:51:56.643Z,53.70
2018-09-08T19:54:24.861Z,54.60
2018-09-08T19:56:58.769Z,54.60
2018-09-08T19:59:27.036Z,54.40
2018-09-08T20:01:55.245Z,54.60
2018-09-08T20:04:23.530Z,54.10
2018-09-08T20:06:51.820Z,54.10
2018-09-08T20:09:20.011Z,54.40
2018-09-08T20:11:48.259Z,54.10
2018-09-08T20:14:16.440Z,54.40
2018-09-08T20:16:44.732Z,55.00
2018-09-08T20:19:12.904Z,55.20
2018-09-08T20:21:41.986Z,55.90
2018-09-08T20:24:10.185Z,55.40
2018-09-08T20:26:38.482Z,55.30
2018-09-08T20:29:07.676Z,55.50
2018-09-08T20:31:35.920Z,56.20
2018-09-08T20:34:04.084Z,55.50
2018-09-08T20:36:33.620Z,55.50
2018-09-08T20:39:01.831Z,56.50
2018-09-08T20:41:30.119Z,56.10
2018-09-08T20:43:58.344Z,56.80
2018-09-08T20:46:27.145Z,56.60
2018-09-08T20:48:55.345Z,56.20
2018-09-08T20:51:23.581Z,56.60
2018-09-08T20:53:51.793Z,56.60
2018-09-08T20:56:20.015Z,56.70
2018-09-08T20:58:48.276Z,56.80
2018-09-08T21:01:16.567Z,56.50
2018-09-08T21:03:44.888Z,56.70
2018-09-08T21:06:13.215Z,57.20
2018-09-08T21:08:41.407Z,56.80
2018-09-08T21:11:09.688Z,57.40
2018-09-08T21:13:37.914Z,57.70
2018-09-08T21:16:06.152Z,57.40
2018-09-08T21:18:34.942Z,58.20
2018-09-08T21:21:03.270Z,58.30
2018-09-08T21:23:31.495Z,58.30
2018-09-08T21:25:59.689Z,58.70
2018-09-08T21:28:27.882Z,58.60
2018-09-08T21:30:56.196Z,59.50
2018-09-08T21:33:24.383Z,58.80
2018-09-08T21:35:52.586Z,58.80
2018-09-08T21:38:20.786Z,58.50
2018-09-08T21:40:48.973Z,58.40
2018-09-08T21:43:17.135Z,59.40
2018-09-08T21:45:45.778Z,59.30
2018-09-08T21:48:14.060Z,59.30
2018-09-08T21:50:42.359Z,59.30
2018-09-08T21:53:10.671Z,59.30
2018-09-08T21:55:38.830Z,59.30
2018-09-08T21:58:07.757Z,59.30
2018-09-08T22:00:36.032Z,58.50
2018-09-08T22:03:04.306Z,59.30
2018-09-08T22:05:32.698Z,59.30
2018-09-08T22:08:01.067Z,58.20
2018-09-08T22:10:29.294Z,58.40
2018-09-08T22:12:57.620Z,58.90
2018-09-08T22:15:25.769Z,59.10
2018-09-08T22:17:53.941Z,59.10
2018-09-08T22:20:22.311Z,59.10
2018-09-08T22:22:50.624Z,58.90
2018-09-08T22:25:18.891Z,59.70
2018-09-08T22:27:47.349Z,59.50
2018-09-08T22:30:15.698Z,59.90
2018-09-08T22:32:44.990Z,59.50
2018-09-08T22:35:13.190Z,59.50
2018-09-08T22:37:41.510Z,59.00
2018-09-08T22:40:09.812Z,59.10
2018-09-08T22:42:38.198Z,59.10
2018-09-08T22:45:06.608Z,59.00
2018-09-08T22:47:35.063Z,59.00
2018-09-08T22:50:03.353Z,60.00
2018-09-08T22:52:31.524Z,59.90
2018-09-08T22:54:59.831Z,59.70
2018-09-08T22:57:28.034Z,59.10
2018-09-08T22:59:56.368Z,59.70
2018-09-08T23:02:24.607Z,59.40
2018-09-08T23:04:52.984Z,60.00
2018-09-08T23:07:21.171Z,60.30
2018-09-08T23:09:49.372Z,61.00
2018-09-08T23:12:17.634Z,61.40
2018-09-08T23:14:45.831Z,61.30
2018-09-08T23:17:14.172Z,61.70
2018-09-08T23:19:42.443Z,62.20
2018-09-08T23:22:10.737Z,61.60
2018-09-08T23:24:38.973Z,61.60
2018-09-08T23:27:07.188Z,61.20
2018-09-08T23:29:35.367Z,60.50
2018-09-08T23:32:03.584Z,59.90
2018-09-08T23:34:31.821Z,58.80
2018-09-08T23:37:01.363Z,58.70
2018-09-08T23:39:29.718Z,59.40
2018-09-08T23:41:58.026Z,59.60
2018-09-08T23:44:26.353Z,59.50
2018-09-08T23:46:54.532Z,59.40
2018-09-08T23:49:23.399Z,59.70
2018-09-08T23:51:51.614Z,59.90
2018-09-08T23:54:19.842Z,60.20
2018-09-08T23:56:48.023Z,60.90
2018-09-08T23:59:16.238Z,61.80
